Snelling, California
Current Conditions -  °F | °C
As of 1:55 AM on Sunday 21 Dec 2014 (Local Time) from KMER Reporting Station
Scattered Clouds Scattered Clouds  
Wind Chill: 54°   Ceiling: Unl
Heat Index: 54°   Visibility: 6mi
Dew Point: 54°   Wind: 6mph
Humidity: 100%   Direction: 330°NNW
Pressure: 30.26"   Gusts: NA
Location:  37.52°N, 120.44°W
Report Text: KMER 210955Z AUTO 33005KT 6SM SCT034 12/12 A3026 RMK AO1
Loading
Personal Weather Stations






























Interactive Weather Map New forecast layout! Learn more

10-Day Weather Forecast

Advertisements
Track Severe Weather on mobile